createdAt,value
2023-12-20T00:00:48.590Z,1006.42
2023-12-20T00:01:48.599Z,1006.40
2023-12-20T00:02:48.460Z,1006.39
2023-12-20T00:03:48.452Z,1006.40
2023-12-20T00:04:48.516Z,1006.44
2023-12-20T00:05:48.394Z,1006.42
2023-12-20T00:06:48.446Z,1006.37
2023-12-20T00:07:48.696Z,1006.41
2023-12-20T00:08:48.382Z,1006.38
2023-12-20T00:09:48.340Z,1006.39
2023-12-20T00:10:48.331Z,1006.40
2023-12-20T00:11:48.323Z,1006.38
2023-12-20T00:12:48.321Z,1006.35
2023-12-20T00:13:51.017Z,1006.35
2023-12-20T00:14:48.273Z,1006.29
2023-12-20T00:15:48.304Z,1006.29
2023-12-20T00:16:48.257Z,1006.20
2023-12-20T00:17:48.744Z,1006.25
2023-12-20T00:18:48.280Z,1006.22
2023-12-20T00:19:48.330Z,1006.26
2023-12-20T00:20:48.236Z,1006.25
2023-12-20T00:21:48.267Z,1006.27
2023-12-20T00:22:48.218Z,1006.24
2023-12-20T00:23:48.189Z,1006.26
2023-12-20T00:24:48.192Z,1006.18
2023-12-20T00:25:48.148Z,1006.18
2023-12-20T00:26:48.165Z,1006.19
2023-12-20T00:27:48.469Z,1006.18
2023-12-20T00:28:48.150Z,1006.17
2023-12-20T00:29:48.093Z,1006.14
2023-12-20T00:30:48.172Z,1006.17
2023-12-20T00:31:48.132Z,1006.17
2023-12-20T00:32:48.188Z,1006.14
2023-12-20T00:33:48.257Z,1006.15
2023-12-20T00:34:48.124Z,1006.11
2023-12-20T00:35:48.023Z,1006.15
2023-12-20T00:36:48.059Z,1006.13
2023-12-20T00:37:48.160Z,1006.10
2023-12-20T00:38:49.650Z,1006.09
2023-12-20T00:39:48.048Z,1006.12
2023-12-20T00:40:47.979Z,1006.13
2023-12-20T00:41:48.022Z,1006.11
2023-12-20T00:42:48.019Z,1006.14
2023-12-20T00:43:47.933Z,1006.11
2023-12-20T00:44:47.933Z,1006.10
2023-12-20T00:45:47.948Z,1006.11
2023-12-20T00:46:47.932Z,1006.12
2023-12-20T00:47:48.176Z,1006.09
2023-12-20T00:48:47.890Z,1006.10
2023-12-20T00:49:47.897Z,1006.09
2023-12-20T00:50:47.866Z,1006.09
2023-12-20T00:51:47.909Z,1006.09
2023-12-20T00:52:47.838Z,1006.14
2023-12-20T00:53:47.859Z,1006.13
2023-12-20T00:54:47.903Z,1006.10
2023-12-20T00:55:47.787Z,1006.08
2023-12-20T00:56:47.789Z,1006.08
2023-12-20T00:57:48.079Z,1006.07
2023-12-20T00:58:47.755Z,1006.07
2023-12-20T00:59:47.771Z,1006.11
2023-12-20T01:00:47.848Z,1006.10
2023-12-20T01:01:47.886Z,1006.11
2023-12-20T01:02:47.741Z,1006.15
2023-12-20T01:03:47.779Z,1006.13
2023-12-20T01:04:47.725Z,1006.14
2023-12-20T01:05:47.757Z,1006.20
2023-12-20T01:06:47.670Z,1006.20
2023-12-20T01:07:48.073Z,1006.17
2023-12-20T01:08:47.638Z,1006.16
2023-12-20T01:09:47.684Z,1006.14
2023-12-20T01:10:47.654Z,1006.17
2023-12-20T01:11:47.629Z,1006.20
2023-12-20T01:12:47.615Z,1006.21
2023-12-20T01:13:47.570Z,1006.25
2023-12-20T01:14:47.593Z,1006.27
2023-12-20T01:15:47.617Z,1006.26
2023-12-20T01:16:47.567Z,1006.28
2023-12-20T01:17:47.955Z,1006.23
2023-12-20T01:18:47.554Z,1006.23
2023-12-20T01:19:47.629Z,1006.24
2023-12-20T01:20:47.515Z,1006.24
2023-12-20T01:21:47.494Z,1006.26
2023-12-20T01:22:47.475Z,1006.20
2023-12-20T01:23:47.550Z,1006.19
2023-12-20T01:24:47.626Z,1006.20
2023-12-20T01:25:47.532Z,1006.19
2023-12-20T01:26:47.584Z,1006.20
2023-12-20T01:27:47.726Z,1006.23
2023-12-20T01:28:47.394Z,1006.23
2023-12-20T01:29:47.405Z,1006.24
2023-12-20T01:30:47.448Z,1006.24
2023-12-20T01:31:47.406Z,1006.21
2023-12-20T01:32:47.401Z,1006.22
2023-12-20T01:33:47.386Z,1006.24
2023-12-20T01:34:47.628Z,1006.25
2023-12-20T01:35:47.731Z,1006.21
2023-12-20T01:36:47.341Z,1006.21
2023-12-20T01:37:47.530Z,1006.19
2023-12-20T01:38:47.293Z,1006.23
2023-12-20T01:39:47.306Z,1006.24
2023-12-20T01:40:48.252Z,1006.22
2023-12-20T01:41:47.257Z,1006.20
2023-12-20T01:42:47.333Z,1006.21
2023-12-20T01:43:51.461Z,1006.19
2023-12-20T01:44:47.253Z,1006.22
2023-12-20T01:45:47.217Z,1006.19
2023-12-20T01:46:47.195Z,1006.19
2023-12-20T01:47:47.367Z,1006.18
2023-12-20T01:48:47.236Z,1006.16
2023-12-20T01:49:47.244Z,1006.16
2023-12-20T01:50:47.163Z,1006.15
2023-12-20T01:51:47.154Z,1006.19
2023-12-20T01:52:47.111Z,1006.17
2023-12-20T01:53:47.153Z,1006.15
2023-12-20T01:54:47.108Z,1006.13
2023-12-20T01:55:47.120Z,1006.14
2023-12-20T01:56:47.072Z,1006.13
2023-12-20T01:57:47.405Z,1006.11
2023-12-20T01:58:47.084Z,1006.15
2023-12-20T01:59:47.046Z,1006.15
2023-12-20T02:00:47.144Z,1006.16
2023-12-20T02:03:47.449Z,1006.18
2023-12-20T02:04:48.471Z,1006.10
2023-12-20T02:05:48.406Z,1006.08
2023-12-20T02:06:48.489Z,1006.08
2023-12-20T02:07:48.705Z,1006.03
2023-12-20T02:08:48.343Z,1005.93
2023-12-20T02:09:49.530Z,1005.93
2023-12-20T02:10:48.317Z,1005.92
2023-12-20T02:11:48.292Z,1005.92
2023-12-20T02:12:48.290Z,1005.89
2023-12-20T02:13:48.246Z,1005.93
2023-12-20T02:14:48.272Z,1005.96
2023-12-20T02:15:48.253Z,1006.01
2023-12-20T02:16:48.237Z,1005.98
2023-12-20T02:17:48.661Z,1006.00
2023-12-20T02:18:48.335Z,1005.98
2023-12-20T02:19:49.300Z,1005.99
2023-12-20T02:20:48.176Z,1005.98
2023-12-20T02:21:48.262Z,1005.97
2023-12-20T02:22:48.155Z,1005.93
2023-12-20T02:23:48.183Z,1005.89
2023-12-20T02:24:49.169Z,1005.88
2023-12-20T02:25:48.141Z,1005.89
2023-12-20T02:26:48.183Z,1005.90
2023-12-20T02:27:48.499Z,1005.91
2023-12-20T02:28:48.077Z,1005.93
2023-12-20T02:29:48.089Z,1005.97
2023-12-20T02:30:48.238Z,1005.98
2023-12-20T02:31:48.061Z,1005.98
2023-12-20T02:32:48.043Z,1006.00
2023-12-20T02:33:48.021Z,1005.99
2023-12-20T02:34:48.161Z,1006.00
2023-12-20T02:35:48.020Z,1006.02
2023-12-20T02:36:48.023Z,1005.97
2023-12-20T02:37:48.117Z,1005.96
2023-12-20T02:38:48.673Z,1005.93
2023-12-20T02:39:47.980Z,1005.95
2023-12-20T02:40:49.945Z,1005.93
2023-12-20T02:41:47.930Z,1005.94
2023-12-20T02:42:48.634Z,1005.94
2023-12-20T02:43:47.921Z,1005.93
2023-12-20T02:44:47.906Z,1005.94
2023-12-20T02:45:47.957Z,1005.93
2023-12-20T02:46:47.874Z,1005.93
2023-12-20T02:47:48.234Z,1005.96
2023-12-20T02:48:47.926Z,1005.96
2023-12-20T02:49:47.885Z,1005.94
2023-12-20T02:50:47.825Z,1005.93
2023-12-20T02:51:47.852Z,1005.93
2023-12-20T02:52:47.795Z,1005.93
2023-12-20T02:53:47.776Z,1005.90
2023-12-20T02:54:47.841Z,1005.88
2023-12-20T02:55:47.746Z,1005.93
2023-12-20T02:56:47.754Z,1005.94
2023-12-20T02:57:48.061Z,1005.96
2023-12-20T02:58:47.730Z,1005.97
2023-12-20T02:59:47.743Z,1005.90
2023-12-20T03:00:48.767Z,1005.92
2023-12-20T03:01:48.304Z,1005.94
2023-12-20T03:02:47.688Z,1005.96
2023-12-20T03:03:47.709Z,1006.00
2023-12-20T03:04:47.762Z,1005.99
2023-12-20T03:05:47.693Z,1006.01
2023-12-20T03:06:47.706Z,1005.97
2023-12-20T03:07:47.746Z,1006.01
2023-12-20T03:08:47.613Z,1005.99
2023-12-20T03:10:00.124Z,1006.01
2023-12-20T03:10:47.627Z,1006.05
2023-12-20T03:11:47.595Z,1006.06
2023-12-20T03:12:47.796Z,1006.01
2023-12-20T03:13:47.564Z,1006.02
2023-12-20T03:14:47.556Z,1006.01
2023-12-20T03:15:47.582Z,1006.02
2023-12-20T03:16:47.553Z,1006.01
2023-12-20T03:17:47.939Z,1006.00
2023-12-20T03:18:47.518Z,1006.01
2023-12-20T03:19:47.491Z,1006.03
2023-12-20T03:20:47.480Z,1006.06
2023-12-20T03:21:47.481Z,1006.11
2023-12-20T03:22:47.445Z,1006.13
2023-12-20T03:23:47.413Z,1006.13
2023-12-20T03:24:47.453Z,1006.09
2023-12-20T03:25:47.393Z,1006.06
2023-12-20T03:26:47.447Z,1006.03
2023-12-20T03:27:47.808Z,1006.02
2023-12-20T03:28:47.376Z,1006.02
2023-12-20T03:29:47.364Z,1006.05
2023-12-20T03:30:47.473Z,1006.08
2023-12-20T03:31:47.414Z,1006.10
2023-12-20T03:32:47.359Z,1006.09
2023-12-20T03:33:47.344Z,1006.07
2023-12-20T03:34:47.359Z,1006.07
2023-12-20T03:35:47.274Z,1006.08
2023-12-20T03:36:47.378Z,1006.10
2023-12-20T03:37:47.594Z,1006.10
2023-12-20T03:38:47.315Z,1006.10
2023-12-20T03:39:47.250Z,1006.11
2023-12-20T03:40:47.252Z,1006.08
2023-12-20T03:41:47.231Z,1006.07
2023-12-20T03:42:49.177Z,1006.07
2023-12-20T03:43:47.201Z,1006.01
2023-12-20T03:44:48.195Z,1005.98
2023-12-20T03:45:47.197Z,1005.95
2023-12-20T03:46:47.206Z,1005.93
2023-12-20T03:47:47.505Z,1005.93
2023-12-20T03:48:47.184Z,1005.89
2023-12-20T03:49:47.166Z,1005.94
2023-12-20T03:50:47.137Z,1005.96
2023-12-20T03:51:47.131Z,1005.98
2023-12-20T03:52:47.131Z,1005.99
2023-12-20T03:53:47.080Z,1006.00
2023-12-20T03:54:47.137Z,1005.98
2023-12-20T03:55:47.067Z,1005.95
2023-12-20T03:56:47.056Z,1005.96
2023-12-20T03:57:47.382Z,1005.96
2023-12-20T03:58:47.037Z,1005.97
2023-12-20T03:59:47.006Z,1005.97
2023-12-20T04:00:47.060Z,1005.92
2023-12-20T04:01:47.624Z,1005.92
2023-12-20T04:02:47.510Z,1005.93
2023-12-20T04:03:47.022Z,1005.90
2023-12-20T04:04:47.052Z,1005.92
2023-12-20T04:05:46.956Z,1005.93
2023-12-20T04:06:47.183Z,1005.88
2023-12-20T04:07:47.829Z,1005.83
2023-12-20T04:08:46.914Z,1005.85
2023-12-20T04:09:46.885Z,1005.83
2023-12-20T04:10:46.889Z,1005.80
2023-12-20T04:11:46.871Z,1005.81
2023-12-20T04:12:46.909Z,1005.82
2023-12-20T04:13:46.893Z,1005.77
2023-12-20T04:14:46.844Z,1005.76
2023-12-20T04:15:46.861Z,1005.70
2023-12-20T04:16:47.758Z,1005.71
2023-12-20T04:17:47.086Z,1005.72
2023-12-20T04:18:46.919Z,1005.69
2023-12-20T04:19:46.907Z,1005.68
2023-12-20T04:20:46.785Z,1005.67
2023-12-20T04:21:46.804Z,1005.68
2023-12-20T04:22:46.791Z,1005.68
2023-12-20T04:23:46.769Z,1005.69
2023-12-20T04:24:46.749Z,1005.68
2023-12-20T04:25:46.755Z,1005.65
2023-12-20T04:26:46.722Z,1005.65
2023-12-20T04:27:46.970Z,1005.65
2023-12-20T04:28:46.700Z,1005.66
2023-12-20T04:29:46.674Z,1005.68
2023-12-20T04:30:46.768Z,1005.69
2023-12-20T04:31:46.712Z,1005.65
2023-12-20T04:32:46.681Z,1005.67
2023-12-20T04:33:46.653Z,1005.68
2023-12-20T04:34:46.699Z,1005.67
2023-12-20T04:35:46.651Z,1005.70
2023-12-20T04:36:46.635Z,1005.72
2023-12-20T04:37:46.935Z,1005.73
2023-12-20T04:38:46.574Z,1005.76
2023-12-20T04:39:46.616Z,1005.76
2023-12-20T04:40:46.573Z,1005.76
2023-12-20T04:41:46.554Z,1005.73
2023-12-20T04:42:46.536Z,1005.71
2023-12-20T04:43:46.536Z,1005.71
2023-12-20T04:44:46.505Z,1005.66
2023-12-20T04:45:46.567Z,1005.68
2023-12-20T04:46:46.531Z,1005.66
2023-12-20T04:47:46.658Z,1005.68
2023-12-20T04:48:46.535Z,1005.64
2023-12-20T04:49:46.507Z,1005.66
2023-12-20T04:50:46.519Z,1005.66
2023-12-20T04:51:46.527Z,1005.66
2023-12-20T04:52:46.411Z,1005.67
2023-12-20T04:53:46.411Z,1005.64
2023-12-20T04:54:46.412Z,1005.65
2023-12-20T04:55:46.429Z,1005.65
2023-12-20T04:56:46.367Z,1005.63
2023-12-20T04:57:46.675Z,1005.64
2023-12-20T04:58:46.343Z,1005.64
2023-12-20T04:59:46.360Z,1005.63
2023-12-20T05:00:46.378Z,1005.64
2023-12-20T05:01:46.429Z,1005.64
2023-12-20T05:02:46.302Z,1005.68
2023-12-20T05:03:46.342Z,1005.71
2023-12-20T05:04:46.305Z,1005.75
2023-12-20T05:05:46.486Z,1005.75
2023-12-20T05:06:46.343Z,1005.77
2023-12-20T05:07:46.576Z,1005.79
2023-12-20T05:08:46.236Z,1005.76
2023-12-20T05:09:46.250Z,1005.70
2023-12-20T05:10:46.223Z,1005.67
2023-12-20T05:11:46.225Z,1005.70
2023-12-20T05:12:46.257Z,1005.71
2023-12-20T05:13:50.353Z,1005.73
2023-12-20T05:14:46.151Z,1005.74
2023-12-20T05:15:46.176Z,1005.74
2023-12-20T05:16:46.142Z,1005.73
2023-12-20T05:17:47.119Z,1005.78
2023-12-20T05:18:46.173Z,1005.74
2023-12-20T05:19:46.229Z,1005.71
2023-12-20T05:20:46.433Z,1005.64
2023-12-20T05:21:46.132Z,1005.68
2023-12-20T05:22:46.078Z,1005.64
2023-12-20T05:23:46.069Z,1005.61
2023-12-20T05:24:46.061Z,1005.68
2023-12-20T05:25:46.053Z,1005.73
2023-12-20T05:26:46.052Z,1005.75
2023-12-20T05:27:46.327Z,1005.74
2023-12-20T05:28:45.993Z,1005.74
2023-12-20T05:29:45.987Z,1005.71
2023-12-20T05:30:46.076Z,1005.68
2023-12-20T05:31:46.043Z,1005.68
2023-12-20T05:32:46.076Z,1005.71
2023-12-20T05:33:46.047Z,1005.69
2023-12-20T05:34:45.987Z,1005.69
2023-12-20T05:35:45.944Z,1005.67
2023-12-20T05:36:45.981Z,1005.65
2023-12-20T05:37:46.253Z,1005.64
2023-12-20T05:38:45.885Z,1005.68
2023-12-20T05:39:45.928Z,1005.70
2023-12-20T05:40:45.881Z,1005.68
2023-12-20T05:41:45.879Z,1005.69
2023-12-20T05:42:45.849Z,1005.73
2023-12-20T05:43:45.834Z,1005.68
2023-12-20T05:44:45.813Z,1005.67
2023-12-20T05:45:45.865Z,1005.68
2023-12-20T05:46:45.794Z,1005.66
2023-12-20T05:47:46.041Z,1005.60
2023-12-20T05:48:45.933Z,1005.60
2023-12-20T05:49:45.800Z,1005.59
2023-12-20T05:50:45.760Z,1005.57
2023-12-20T05:51:45.758Z,1005.64
2023-12-20T05:52:45.735Z,1005.65
2023-12-20T05:53:45.701Z,1005.58
2023-12-20T05:54:45.732Z,1005.55
2023-12-20T05:55:45.723Z,1005.56
2023-12-20T05:56:45.669Z,1005.55
2023-12-20T05:57:45.973Z,1005.59
2023-12-20T05:58:45.644Z,1005.55
2023-12-20T05:59:45.648Z,1005.54
2023-12-20T06:00:45.730Z,1005.55
2023-12-20T06:01:45.692Z,1005.51
2023-12-20T06:02:46.267Z,1005.51
2023-12-20T06:03:45.612Z,1005.47
2023-12-20T06:04:45.647Z,1005.47
2023-12-20T06:05:45.654Z,1005.47
2023-12-20T06:06:45.672Z,1005.45
2023-12-20T06:07:45.807Z,1005.46
2023-12-20T06:08:45.625Z,1005.49
2023-12-20T06:09:45.592Z,1005.46
2023-12-20T06:10:45.523Z,1005.47
2023-12-20T06:11:45.550Z,1005.48
2023-12-20T06:12:45.494Z,1005.46
2023-12-20T06:13:45.487Z,1005.46
2023-12-20T06:14:45.464Z,1005.48
2023-12-20T06:15:45.487Z,1005.46
2023-12-20T06:16:45.446Z,1005.45
2023-12-20T06:17:45.744Z,1005.46
2023-12-20T06:18:45.482Z,1005.44
2023-12-20T06:19:45.523Z,1005.46
2023-12-20T06:20:45.400Z,1005.46
2023-12-20T06:21:45.739Z,1005.48
2023-12-20T06:22:45.373Z,1005.49
2023-12-20T06:23:45.370Z,1005.52
2023-12-20T06:24:45.385Z,1005.56
2023-12-20T06:25:46.264Z,1005.57
2023-12-20T06:26:45.410Z,1005.57
2023-12-20T06:27:45.594Z,1005.56
2023-12-20T06:28:45.394Z,1005.57
2023-12-20T06:29:45.381Z,1005.57
2023-12-20T06:30:45.401Z,1005.56
2023-12-20T06:31:45.368Z,1005.57
2023-12-20T06:32:45.320Z,1005.56
2023-12-20T06:33:45.302Z,1005.58
2023-12-20T06:34:45.380Z,1005.61
2023-12-20T06:35:45.768Z,1005.60
2023-12-20T06:36:45.232Z,1005.60
2023-12-20T06:37:45.455Z,1005.58
2023-12-20T06:38:45.214Z,1005.58
2023-12-20T06:39:45.230Z,1005.59
2023-12-20T06:40:45.185Z,1005.56
2023-12-20T06:41:45.153Z,1005.53
2023-12-20T06:42:50.473Z,1005.50
2023-12-20T06:43:49.989Z,1005.49
2023-12-20T06:44:45.131Z,1005.49
2023-12-20T06:45:45.165Z,1005.51
2023-12-20T06:46:45.098Z,1005.51
2023-12-20T06:47:45.407Z,1005.53
2023-12-20T06:48:45.232Z,1005.52
2023-12-20T06:49:45.177Z,1005.53
2023-12-20T06:50:45.157Z,1005.55
2023-12-20T06:51:45.164Z,1005.53
2023-12-20T06:52:45.021Z,1005.53
2023-12-20T06:53:45.104Z,1005.50
2023-12-20T06:54:45.065Z,1005.48
2023-12-20T06:55:44.996Z,1005.46
2023-12-20T06:56:44.977Z,1005.43
2023-12-20T06:57:45.249Z,1005.44
2023-12-20T06:58:45.029Z,1005.38
2023-12-20T06:59:44.946Z,1005.36
2023-12-20T07:00:45.221Z,1005.37
2023-12-20T07:01:45.783Z,1005.38
2023-12-20T07:02:44.938Z,1005.37
2023-12-20T07:03:44.951Z,1005.36
2023-12-20T07:04:45.434Z,1005.37
2023-12-20T07:05:44.883Z,1005.39
2023-12-20T07:06:44.901Z,1005.36
2023-12-20T07:07:45.212Z,1005.42
2023-12-20T07:08:44.878Z,1005.42
2023-12-20T07:09:44.879Z,1005.40
2023-12-20T07:10:44.875Z,1005.40
2023-12-20T07:11:44.838Z,1005.37
2023-12-20T07:12:44.902Z,1005.39
2023-12-20T07:13:44.830Z,1005.38
2023-12-20T07:14:44.784Z,1005.36
2023-12-20T07:15:45.076Z,1005.34
2023-12-20T07:16:44.793Z,1005.35
2023-12-20T07:17:45.256Z,1005.36
2023-12-20T07:18:44.769Z,1005.40
2023-12-20T07:19:44.812Z,1005.34
2023-12-20T07:20:44.704Z,1005.35
2023-12-20T07:21:44.763Z,1005.31
2023-12-20T07:22:44.933Z,1005.28
2023-12-20T07:23:44.679Z,1005.28
2023-12-20T07:24:44.692Z,1005.29
2023-12-20T07:25:44.681Z,1005.33
2023-12-20T07:26:44.645Z,1005.28
2023-12-20T07:27:45.768Z,1005.30
2023-12-20T07:28:44.668Z,1005.29
2023-12-20T07:29:44.612Z,1005.28
2023-12-20T07:30:44.640Z,1005.31
2023-12-20T07:31:44.658Z,1005.27
2023-12-20T07:32:44.619Z,1005.27
2023-12-20T07:33:44.851Z,1005.31
2023-12-20T07:34:44.656Z,1005.27
2023-12-20T07:35:44.647Z,1005.20
2023-12-20T07:36:44.568Z,1005.22
2023-12-20T07:37:44.737Z,1005.20
2023-12-20T07:38:44.505Z,1005.26
2023-12-20T07:39:44.535Z,1005.23
2023-12-20T07:40:44.457Z,1005.27
2023-12-20T07:41:45.736Z,1005.26
2023-12-20T07:42:44.517Z,1005.21
2023-12-20T07:43:44.473Z,1005.22
2023-12-20T07:44:44.426Z,1005.24
2023-12-20T07:45:45.315Z,1005.23
2023-12-20T07:46:44.404Z,1005.17
2023-12-20T07:47:44.713Z,1005.19
2023-12-20T07:48:46.221Z,1005.20
2023-12-20T07:49:44.428Z,1005.22
2023-12-20T07:50:44.354Z,1005.15
2023-12-20T07:51:44.394Z,1005.19
2023-12-20T07:52:44.379Z,1005.16
2023-12-20T07:53:44.362Z,1005.20
2023-12-20T07:54:44.351Z,1005.13
2023-12-20T07:55:44.345Z,1005.12
2023-12-20T07:56:44.311Z,1005.18
2023-12-20T07:57:44.617Z,1005.18
2023-12-20T07:58:51.644Z,1005.12
2023-12-20T07:59:44.339Z,1005.13
2023-12-20T08:00:44.316Z,1005.15
2023-12-20T08:01:44.290Z,1005.10
2023-12-20T08:02:44.234Z,1005.15
2023-12-20T08:03:44.309Z,1005.19
2023-12-20T08:04:44.341Z,1005.15
2023-12-20T08:05:44.196Z,1005.16
2023-12-20T08:06:44.227Z,1005.18
2023-12-20T08:07:44.439Z,1005.16
2023-12-20T08:08:45.550Z,1005.21
2023-12-20T08:09:44.206Z,1005.17
2023-12-20T08:10:44.150Z,1005.17
2023-12-20T08:11:44.131Z,1005.16
2023-12-20T08:12:44.113Z,1005.14
2023-12-20T08:13:44.082Z,1005.17
2023-12-20T08:14:44.137Z,1005.12
2023-12-20T08:15:44.116Z,1005.20
2023-12-20T08:16:44.100Z,1005.26
2023-12-20T08:17:44.573Z,1005.29
2023-12-20T08:18:44.139Z,1005.29
2023-12-20T08:19:44.163Z,1005.27
2023-12-20T08:20:44.134Z,1005.25
2023-12-20T08:21:44.059Z,1005.30
2023-12-20T08:22:44.005Z,1005.21
2023-12-20T08:23:44.026Z,1005.22
2023-12-20T08:24:43.959Z,1005.27
2023-12-20T08:25:43.983Z,1005.18
2023-12-20T08:26:43.992Z,1005.22
2023-12-20T08:27:44.280Z,1005.20
2023-12-20T08:28:43.949Z,1005.22
2023-12-20T08:29:43.898Z,1005.19
2023-12-20T08:30:43.989Z,1005.23
2023-12-20T08:31:43.969Z,1005.16
2023-12-20T08:32:43.947Z,1005.17
2023-12-20T08:33:43.930Z,1005.11
2023-12-20T08:34:43.969Z,1005.16
2023-12-20T08:35:43.897Z,1005.12
2023-12-20T08:36:43.873Z,1005.12
2023-12-20T08:37:44.054Z,1005.14
2023-12-20T08:38:43.830Z,1005.11
2023-12-20T08:39:45.940Z,1005.05
2023-12-20T08:40:43.796Z,1005.06
2023-12-20T08:41:43.756Z,1005.03
2023-12-20T08:42:43.784Z,1005.03
2023-12-20T08:43:43.737Z,1005.00
2023-12-20T08:44:43.786Z,1004.93
2023-12-20T08:45:43.844Z,1004.87
2023-12-20T08:46:43.756Z,1004.91
2023-12-20T08:47:43.919Z,1004.88
2023-12-20T08:48:43.958Z,1004.86
2023-12-20T08:49:43.783Z,1004.81
2023-12-20T08:50:43.784Z,1004.91
2023-12-20T08:51:43.705Z,1004.85
2023-12-20T08:52:43.704Z,1004.88
2023-12-20T08:53:43.672Z,1004.89
2023-12-20T08:54:45.429Z,1004.89
2023-12-20T08:55:43.621Z,1004.83
2023-12-20T08:56:43.611Z,1004.98
2023-12-20T08:57:43.815Z,1004.89
2023-12-20T08:58:43.587Z,1004.84
2023-12-20T08:59:43.606Z,1004.85
2023-12-20T09:00:43.633Z,1004.93
2023-12-20T09:01:43.610Z,1004.93
2023-12-20T09:02:43.549Z,1004.86
2023-12-20T09:03:43.623Z,1004.87
2023-12-20T09:04:43.623Z,1004.89
2023-12-20T09:05:43.503Z,1004.90
2023-12-20T09:06:43.573Z,1004.94
2023-12-20T09:07:43.762Z,1004.84
2023-12-20T09:08:43.489Z,1004.84
2023-12-20T09:09:44.397Z,1004.82
2023-12-20T09:10:43.455Z,1004.97
2023-12-20T09:11:43.422Z,1004.83
2023-12-20T09:12:43.449Z,1004.89
2023-12-20T09:13:43.429Z,1004.82
2023-12-20T09:14:43.448Z,1004.77
2023-12-20T09:15:43.433Z,1004.64
2023-12-20T09:16:43.364Z,1004.74
2023-12-20T09:17:43.533Z,1004.68
2023-12-20T09:18:43.463Z,1004.69
2023-12-20T09:19:43.405Z,1004.70
2023-12-20T09:20:44.746Z,1004.65
2023-12-20T09:21:43.320Z,1004.76
2023-12-20T09:22:43.314Z,1004.85
2023-12-20T09:23:44.572Z,1004.83
2023-12-20T09:24:43.308Z,1004.85
2023-12-20T09:25:43.262Z,1004.86
2023-12-20T09:26:43.250Z,1004.73
2023-12-20T09:27:43.548Z,1004.74
2023-12-20T09:28:43.302Z,1004.76
2023-12-20T09:29:43.220Z,1004.79
2023-12-20T09:30:43.228Z,1004.74
2023-12-20T09:31:43.284Z,1004.73
2023-12-20T09:32:44.381Z,1004.64
2023-12-20T09:33:43.337Z,1004.65
2023-12-20T09:34:43.270Z,1004.68
2023-12-20T09:35:43.318Z,1004.67
2023-12-20T09:36:43.208Z,1004.65
2023-12-20T09:37:43.354Z,1004.66
2023-12-20T09:38:44.305Z,1004.67
2023-12-20T09:39:43.131Z,1004.60
2023-12-20T09:40:43.124Z,1004.63
2023-12-20T09:41:43.064Z,1004.63
2023-12-20T09:42:43.179Z,1004.63
2023-12-20T09:43:43.083Z,1004.64
2023-12-20T09:44:44.219Z,1004.63
2023-12-20T09:45:43.078Z,1004.73
2023-12-20T09:46:43.014Z,1004.73
2023-12-20T09:47:43.148Z,1004.65
2023-12-20T09:48:43.080Z,1004.71
2023-12-20T09:49:43.061Z,1004.62
2023-12-20T09:50:44.876Z,1004.62
2023-12-20T09:51:43.061Z,1004.56
2023-12-20T09:52:42.971Z,1004.57
2023-12-20T09:53:42.985Z,1004.47
2023-12-20T09:54:42.977Z,1004.60
2023-12-20T09:55:42.922Z,1004.57
2023-12-20T09:56:44.316Z,1004.70
2023-12-20T09:57:43.003Z,1004.58
2023-12-20T09:58:42.945Z,1004.62
2023-12-20T09:59:42.882Z,1004.62
2023-12-20T10:00:42.971Z,1004.55
2023-12-20T10:01:42.889Z,1004.47
2023-12-20T10:02:42.843Z,1004.51
2023-12-20T10:03:42.871Z,1004.46
2023-12-20T10:04:42.859Z,1004.47
2023-12-20T10:05:42.918Z,1004.49
2023-12-20T10:06:42.851Z,1004.49
2023-12-20T10:07:42.937Z,1004.48
2023-12-20T10:08:42.782Z,1004.37
2023-12-20T10:09:42.812Z,1004.42
2023-12-20T10:10:47.890Z,1004.41
2023-12-20T10:11:42.729Z,1004.35
2023-12-20T10:12:43.746Z,1004.34
2023-12-20T10:13:42.856Z,1004.39
2023-12-20T10:14:42.768Z,1004.35
2023-12-20T10:15:43.436Z,1004.35
2023-12-20T10:16:42.690Z,1004.39
2023-12-20T10:17:42.701Z,1004.36
2023-12-20T10:18:42.684Z,1004.27
2023-12-20T10:19:42.812Z,1004.27
2023-12-20T10:20:42.794Z,1004.23
2023-12-20T10:21:42.630Z,1004.17
2023-12-20T10:22:42.637Z,1004.19
2023-12-20T10:23:42.603Z,1004.23
2023-12-20T10:24:42.617Z,1004.20
2023-12-20T10:25:42.560Z,1004.22
2023-12-20T10:26:42.550Z,1004.21
2023-12-20T10:27:42.570Z,1004.18
2023-12-20T10:28:42.568Z,1004.16
2023-12-20T10:29:42.500Z,1004.17
2023-12-20T10:30:42.780Z,1004.15
2023-12-20T10:31:42.637Z,1004.13
2023-12-20T10:32:43.333Z,1004.11
2023-12-20T10:33:42.506Z,1004.06
2023-12-20T10:34:42.538Z,1004.11
2023-12-20T10:35:45.152Z,1004.07
2023-12-20T10:36:42.437Z,1004.01
2023-12-20T10:37:42.420Z,1004.01
2023-12-20T10:38:42.482Z,1003.94
2023-12-20T10:39:42.388Z,1003.98
2023-12-20T10:40:42.612Z,1003.92
2023-12-20T10:41:42.548Z,1003.87
2023-12-20T10:42:42.355Z,1003.88
2023-12-20T10:43:42.411Z,1003.86
2023-12-20T10:44:42.375Z,1003.80
2023-12-20T10:45:42.346Z,1003.81
2023-12-20T10:46:42.310Z,1003.80
2023-12-20T10:47:42.398Z,1003.76
2023-12-20T10:48:42.329Z,1003.73
2023-12-20T10:49:42.299Z,1003.75
2023-12-20T10:50:42.273Z,1003.72
2023-12-20T10:51:42.343Z,1003.78
2023-12-20T10:52:42.275Z,1003.71
2023-12-20T10:53:42.225Z,1003.72
2023-12-20T10:54:42.224Z,1003.67
2023-12-20T10:55:42.266Z,1003.67
2023-12-20T10:56:42.208Z,1003.64
2023-12-20T10:57:42.259Z,1003.62
2023-12-20T10:58:42.202Z,1003.60
2023-12-20T10:59:42.176Z,1003.55
2023-12-20T11:00:42.340Z,1003.50
2023-12-20T11:01:42.213Z,1003.55
2023-12-20T11:02:42.174Z,1003.54
2023-12-20T11:03:42.103Z,1003.50
2023-12-20T11:04:42.237Z,1003.53
2023-12-20T11:05:42.081Z,1003.52
2023-12-20T11:06:42.087Z,1003.48
2023-12-20T11:07:42.173Z,1003.47
2023-12-20T11:08:42.076Z,1003.44
2023-12-20T11:09:42.102Z,1003.41
2023-12-20T11:10:42.087Z,1003.42
2023-12-20T11:11:41.998Z,1003.37
2023-12-20T11:12:42.032Z,1003.33
2023-12-20T11:13:42.038Z,1003.30
2023-12-20T11:14:41.969Z,1003.32
2023-12-20T11:15:41.956Z,1003.29
2023-12-20T11:16:48.753Z,1003.23
2023-12-20T11:17:41.987Z,1003.23
2023-12-20T11:18:41.961Z,1003.20
2023-12-20T11:19:41.958Z,1003.20
2023-12-20T11:20:41.892Z,1003.19
2023-12-20T11:21:41.876Z,1003.21
2023-12-20T11:22:42.089Z,1003.15
2023-12-20T11:23:41.868Z,1003.08
2023-12-20T11:24:41.882Z,1003.09
2023-12-20T11:25:41.871Z,1003.14
2023-12-20T11:26:41.861Z,1003.09
2023-12-20T11:27:41.819Z,1003.01
2023-12-20T11:28:41.866Z,1003.08
2023-12-20T11:29:41.802Z,1003.02
2023-12-20T11:30:41.877Z,1003.03
2023-12-20T11:31:41.818Z,1003.04
2023-12-20T11:32:41.818Z,1003.03
2023-12-20T11:33:41.750Z,1003.02
2023-12-20T11:34:41.846Z,1002.98
2023-12-20T11:35:41.787Z,1003.03
2023-12-20T11:36:41.747Z,1002.88
2023-12-20T11:37:41.706Z,1002.81
2023-12-20T11:38:41.680Z,1002.86
2023-12-20T11:39:41.674Z,1002.82
2023-12-20T11:40:41.745Z,1002.71
2023-12-20T11:41:41.667Z,1002.79
2023-12-20T11:42:41.646Z,1002.78
2023-12-20T11:43:41.766Z,1002.72
2023-12-20T11:44:41.638Z,1002.73
2023-12-20T11:45:41.654Z,1002.70
2023-12-20T11:46:41.606Z,1002.67
2023-12-20T11:47:41.582Z,1002.69
2023-12-20T11:48:41.594Z,1002.66
2023-12-20T11:49:41.619Z,1002.57
2023-12-20T11:50:41.630Z,1002.58
2023-12-20T11:51:41.532Z,1002.59
2023-12-20T11:52:41.531Z,1002.53
2023-12-20T11:53:41.497Z,1002.54
2023-12-20T11:54:41.489Z,1002.50
2023-12-20T11:55:41.550Z,1002.46
2023-12-20T11:56:41.497Z,1002.38
2023-12-20T11:57:41.452Z,1002.41
2023-12-20T11:58:41.468Z,1002.35
2023-12-20T11:59:41.414Z,1002.31
2023-12-20T12:00:41.507Z,1002.25
2023-12-20T12:01:41.489Z,1002.22
2023-12-20T12:02:41.402Z,1002.23
2023-12-20T12:03:41.367Z,1002.18
2023-12-20T12:04:41.473Z,1002.21
2023-12-20T12:05:41.505Z,1002.22
2023-12-20T12:06:41.366Z,1002.12
2023-12-20T12:07:41.357Z,1002.01